Time;durP1;ratioP1;P1;durP2;ratioP2;P2;SDS_P1;SDS_P2;PMS_P1;PMS_P2;Temp;Humidity;BMP_temperature;BMP_pressure;BME280_temperature;BME280_humidity;BME280_pressure;Samples;Min_cycle;Max_cycle;Signal;HPM_P1;HPM_P2
2020/12/29 00:00:25;;;;;;;19.20;8.90;;;;;;;-6.51;58.97;100304.22;10457485;28;20130;-51
2020/12/29 00:05:28;;;;;;;21.27;9.60;;;;;;;-6.41;58.54;100297.31;10458309;28;20044;-51
2020/12/29 00:10:31;;;;;;;18.45;8.32;;;;;;;-6.31;58.67;100292.16;10458840;28;20481;-51
2020/12/29 00:15:33;;;;;;;17.70;6.50;;;;;;;-6.39;58.87;100303.28;10457367;28;20768;-51
2020/12/29 00:20:35;;;;;;;20.80;9.00;;;;;;;-6.42;59.49;100283.69;10457348;28;20552;-51
2020/12/29 00:25:38;;;;;;;8.23;2.93;;;;;;;-6.43;59.57;100279.44;10457383;28;20055;-51
2020/12/29 00:30:39;;;;;;;16.93;7.93;;;;;;;-6.48;59.87;100283.72;10457214;28;20302;-50
2020/12/29 00:35:41;;;;;;;15.35;5.82;;;;;;;-6.42;60.78;100267.50;10456847;28;20044;-50
2020/12/29 00:40:43;;;;;;;12.18;4.45;;;;;;;-6.44;60.44;100248.75;10455561;28;20543;-49
2020/12/29 00:45:45;;;;;;;20.90;7.70;;;;;;;-6.33;60.67;100244.41;10463395;28;20485;-49
2020/12/29 00:50:47;;;;;;;20.00;8.38;;;;;;;-6.15;60.41;100246.81;10473569;28;20561;-51
2020/12/29 00:55:50;;;;;;;21.45;8.68;;;;;;;-5.91;60.49;100245.72;10452316;28;20059;-49
2020/12/29 01:00:52;;;;;;;;;;;;;;;-5.80;60.13;100241.31;10453004;28;20519;-51
2020/12/29 01:05:54;;;;;;;14.27;4.82;;;;;;;-5.80;60.43;100245.59;10453356;28;19925;-50
2020/12/29 01:10:59;;;;;;;21.40;7.20;;;;;;;-5.85;60.04;100237.97;10452594;28;20076;-51
2020/12/29 01:16:22;;;;;;;13.18;5.38;;;;;;;-5.89;60.14;100226.06;10452999;28;20140;-50
2020/12/29 01:21:28;;;;;;;19.38;6.45;;;;;;;-5.91;60.17;100225.25;10452545;28;20048;-51
2020/12/29 01:26:30;;;;;;;16.40;7.07;;;;;;;-5.93;59.73;100236.38;10453149;28;20052;-51
2020/12/29 01:31:32;;;;;;;13.93;6.90;;;;;;;-5.99;59.76;100227.03;10453042;28;20409;-49
2020/12/29 01:36:34;;;;;;;11.30;4.68;;;;;;;-6.03;60.21;100217.72;10453033;28;20049;-49
2020/12/29 01:41:36;;;;;;;14.43;5.18;;;;;;;-5.95;60.33;100208.22;10451619;28;20037;-52
2020/12/29 01:46:40;;;;;;;10.60;5.50;;;;;;;-5.90;60.35;100214.13;10452700;28;20640;-51
2020/12/29 01:51:42;;;;;;;13.77;4.95;;;;;;;-5.85;60.32;100214.06;10453285;28;20068;-51
2020/12/29 01:56:45;;;;;;;12.85;5.97;;;;;;;-5.81;60.22;100201.22;10453501;28;20083;-50
2020/12/29 02:01:46;;;;;;;11.93;5.03;;;;;;;-5.82;60.32;100193.56;10457318;28;20051;-51
2020/12/29 02:06:50;;;;;;;14.88;5.07;;;;;;;-5.79;60.29;100181.59;10460298;28;20060;-51
2020/12/29 02:11:52;;;;;;;;;;;;;;;-5.73;60.72;100183.22;10460645;28;20037;-51
2020/12/29 02:16:53;;;;;;;15.00;5.45;;;;;;;-5.69;60.67;100184.03;10460964;28;19924;-49
2020/12/29 02:21:55;;;;;;;20.00;6.93;;;;;;;-5.65;60.51;100181.41;10459343;28;20045;-51
2020/12/29 02:26:58;;;;;;;9.95;3.67;;;;;;;-5.66;61.01;100159.25;10460008;28;20049;-49
2020/12/29 02:32:00;;;;;;;4.10;1.80;;;;;;;-5.65;60.61;100152.41;10459152;28;20045;-50
2020/12/29 02:37:01;;;;;;;11.57;5.32;;;;;;;-5.64;61.01;100154.94;10460249;28;20041;-50
2020/12/29 02:42:04;;;;;;;9.50;4.47;;;;;;;-5.62;61.06;100137.84;10457941;28;20048;-51
2020/12/29 02:47:06;;;;;;;14.47;4.87;;;;;;;-5.57;60.98;100148.88;10458221;28;20053;-51
2020/12/29 02:52:07;;;;;;;13.43;5.60;;;;;;;-5.56;61.28;100137.75;10458182;28;20048;-49
2020/12/29 02:57:10;;;;;;;20.88;7.15;;;;;;;-5.52;61.15;100140.28;10458237;28;20535;-51
2020/12/29 03:02:12;;;;;;;6.63;2.53;;;;;;;-5.48;61.30;100126.56;10457696;28;20461;-50
2020/12/29 03:07:14;;;;;;;6.30;3.70;;;;;;;-5.52;60.93;100114.66;10458476;28;20147;-51
2020/12/29 03:12:16;;;;;;;12.07;5.28;;;;;;;-5.55;61.50;100121.53;10457630;28;20432;-54
2020/12/29 03:17:18;;;;;;;20.07;7.83;;;;;;;-5.49;61.66;100106.94;10457304;28;20049;-49
2020/12/29 03:22:20;;;;;;;9.57;3.88;;;;;;;-5.47;61.61;100116.31;10457337;28;20044;-54
2020/12/29 03:27:22;;;;;;;9.35;3.22;;;;;;;-5.36;61.74;100116.16;10456836;28;20052;-56
2020/12/29 03:32:24;;;;;;;6.97;3.33;;;;;;;-5.24;61.45;100105.72;10456122;28;20064;-50
2020/12/29 03:37:25;;;;;;;15.15;5.75;;;;;;;-5.26;61.95;100097.25;10455960;28;20111;-52
2020/12/29 03:42:29;;;;;;;10.73;3.50;;;;;;;-5.22;62.36;100088.63;10456874;28;20056;-49
2020/12/29 03:47:30;;;;;;;12.27;4.78;;;;;;;-5.13;62.49;100083.38;10456539;28;20053;-51
2020/12/29 03:52:32;;;;;;;9.77;4.38;;;;;;;-5.06;61.95;100083.25;10455700;28;20049;-51
2020/12/29 03:57:35;;;;;;;13.15;5.88;;;;;;;-5.05;62.23;100087.50;10455825;28;20057;-51
2020/12/29 04:02:36;;;;;;;13.10;5.95;;;;;;;-4.99;62.32;100084.84;10455098;28;20041;-51
2020/12/29 04:07:38;;;;;;;6.45;3.28;;;;;;;-4.96;61.78;100092.50;10454735;28;20041;-49
2020/12/29 04:12:40;;;;;;;9.75;4.38;;;;;;;-4.96;61.73;100090.78;10455297;28;20148;-51
2020/12/29 04:17:44;;;;;;;14.67;4.43;;;;;;;-4.96;61.71;100097.63;10454268;28;20045;-50
2020/12/29 04:22:45;;;;;;;12.00;3.63;;;;;;;-4.97;62.35;100093.38;10454488;28;20076;-49
2020/12/29 04:27:48;;;;;;;3.60;2.13;;;;;;;-4.94;62.12;100090.78;10454013;28;20116;-50
2020/12/29 04:32:50;;;;;;;8.68;3.33;;;;;;;-4.93;62.32;100079.63;10453963;28;20052;-51
2020/12/29 04:37:51;;;;;;;9.27;3.90;;;;;;;-4.91;61.79;100077.91;10455666;28;20048;-51
2020/12/29 04:42:54;;;;;;;9.20;4.40;;;;;;;-4.98;62.00;100095.09;10455093;28;20049;-50
2020/12/29 04:47:56;;;;;;;13.20;5.35;;;;;;;-4.96;62.10;100074.56;10453642;28;20056;-52
2020/12/29 04:52:58;;;;;;;11.50;4.28;;;;;;;-4.91;61.75;100071.03;10454944;28;20059;-52
2020/12/29 04:58:01;;;;;;;12.05;5.30;;;;;;;-4.86;61.85;100064.13;10454416;28;20366;-49
2020/12/29 05:03:03;;;;;;;10.27;3.43;;;;;;;-4.87;61.78;100065.00;10454754;28;20079;-52
2020/12/29 05:08:04;;;;;;;9.10;4.38;;;;;;;-4.87;62.30;100062.44;10453423;28;20053;-50
2020/12/29 05:13:07;;;;;;;10.77;4.80;;;;;;;-4.82;62.27;100056.41;10455118;28;20049;-49
2020/12/29 05:18:09;;;;;;;9.60;4.00;;;;;;;-4.87;62.31;100061.59;10451939;28;20061;-52
2020/12/29 05:23:11;;;;;;;6.47;3.10;;;;;;;-4.89;62.33;100046.25;10452732;28;20048;-50
2020/12/29 05:28:14;;;;;;;11.70;4.47;;;;;;;-4.89;62.54;100040.28;10452262;28;20111;-50
2020/12/29 05:33:16;;;;;;;7.78;3.38;;;;;;;-4.86;62.59;100040.22;10453321;28;20470;-51
2020/12/29 05:38:18;;;;;;;9.50;4.13;;;;;;;-4.85;62.67;100044.47;10462790;28;20087;-51
2020/12/29 05:43:31;;;;;;;10.73;4.47;;;;;;;-4.83;62.73;100029.91;10461742;28;20055;-49
2020/12/29 05:48:32;;;;;;;8.73;4.07;;;;;;;-4.83;63.12;100034.16;10462925;28;20048;-50
2020/12/29 05:53:35;;;;;;;8.63;3.85;;;;;;;-4.77;62.96;100032.38;10462509;28;20481;-53
2020/12/29 05:58:38;;;;;;;10.65;4.05;;;;;;;-4.75;63.10;100046.00;10463679;28;20049;-49
2020/12/29 06:03:41;;;;;;;16.35;6.78;;;;;;;-4.56;63.82;100032.84;10461671;28;20536;-50
2020/12/29 06:08:43;;;;;;;17.08;6.25;;;;;;;-4.14;64.24;100028.63;10461421;28;20056;-51
2020/12/29 06:13:48;;;;;;;18.23;9.18;;;;;;;-3.70;64.68;100021.69;10461475;28;20157;-50
2020/12/29 06:18:59;;;;;;;18.13;7.35;;;;;;;-3.36;65.28;100055.19;10461670;28;20114;-52
2020/12/29 06:24:03;;;;;;;8.90;4.32;;;;;;;-3.24;64.75;100047.19;10504170;28;20041;-49
2020/12/29 06:29:08;;;;;;;11.93;5.18;;;;;;;-3.39;64.04;100039.84;10505237;28;20045;-51
2020/12/29 06:34:11;;;;;;;12.32;5.45;;;;;;;-3.46;63.18;100048.59;10504847;28;20059;-50
2020/12/29 06:39:15;;;;;;;11.38;5.10;;;;;;;-3.60;63.21;100050.59;10506704;28;20049;-49
2020/12/29 06:44:17;;;;;;;;;;;;;;;-3.56;63.25;100011.13;10507843;28;20535;-51
2020/12/29 06:49:20;;;;;;;11.85;4.25;;;;;;;-3.50;63.21;100005.84;10502314;28;20374;-52
2020/12/29 06:54:45;;;;;;;16.52;6.95;;;;;;;-3.44;63.35;100003.13;10505381;28;20370;-49
2020/12/29 06:59:48;;;;;;;17.00;7.38;;;;;;;-3.42;62.93;99978.22;10506261;28;20139;-55
2020/12/29 07:04:51;;;;;;;16.92;8.13;;;;;;;-3.26;63.14;100010.41;10504608;28;20087;-50
2020/12/29 07:10:00;;;;;;;15.70;6.78;;;;;;;-3.15;63.65;99993.88;10504354;28;20044;-50
2020/12/29 07:15:05;;;;;;;13.45;6.15;;;;;;;-3.11;63.23;100003.19;10503524;28;20052;-50
2020/12/29 07:20:16;;;;;;;12.57;5.35;;;;;;;-3.11;63.11;100011.78;10502947;28;20044;-50
2020/12/29 07:25:20;;;;;;;5.65;2.30;;;;;;;-3.18;62.97;100009.38;10502599;28;20055;-50
2020/12/29 07:30:23;;;;;;;15.23;6.65;;;;;;;-3.09;63.32;100004.00;10502977;28;20048;-51
2020/12/29 07:35:27;;;;;;;14.93;6.97;;;;;;;-2.99;63.68;100015.75;10502409;28;20059;-50
2020/12/29 07:40:28;;;;;;;12.40;4.15;;;;;;;-2.84;64.05;100017.94;10502311;28;20366;-50
2020/12/29 07:45:31;;;;;;;19.85;8.18;;;;;;;-2.75;63.35;99998.03;10501329;28;20432;-50
2020/12/29 07:50:33;;;;;;;8.27;2.85;;;;;;;-2.75;62.60;99998.03;10502276;28;20044;-52
2020/12/29 07:55:35;;;;;;;12.30;4.80;;;;;;;-2.63;63.35;99989.97;10501762;28;20067;-54
2020/12/29 08:00:40;;;;;;;15.20;7.57;;;;;;;-2.56;63.07;99958.03;10500552;28;20210;-52
2020/12/29 08:05:41;;;;;;;13.52;6.40;;;;;;;-2.32;64.00;99957.34;10502526;28;20114;-52
2020/12/29 08:10:44;;;;;;;10.45;4.65;;;;;;;-2.22;63.07;99982.84;10505371;28;20059;-52
2020/12/29 08:15:49;;;;;;;14.05;4.93;;;;;;;-2.26;63.36;99960.66;10501376;28;20045;-52
2020/12/29 08:20:54;;;;;;;18.67;8.73;;;;;;;-1.91;63.55;99947.59;10504870;28;20078;-52
2020/12/29 08:25:57;;;;;;;17.63;7.55;;;;;;;-1.92;63.59;99943.31;10500585;28;20142;-51
2020/12/29 08:31:02;;;;;;;9.33;4.17;;;;;;;-1.76;64.14;99960.88;10501458;28;20044;-50
2020/12/29 08:36:04;;;;;;;13.43;5.47;;;;;;;-1.46;63.44;99933.31;10500517;28;20290;-50
2020/12/29 08:41:15;;;;;;;10.17;4.97;;;;;;;-1.26;63.21;99936.09;10500051;28;20056;-50
2020/12/29 08:46:20;;;;;;;4.40;2.03;;;;;;;-1.48;62.52;99935.94;10500122;28;20480;-49
2020/12/29 08:51:25;;;;;;;8.93;4.97;;;;;;;-1.55;62.73;99924.13;10499849;28;20048;-51
2020/12/29 08:56:27;;;;;;;15.95;7.63;;;;;;;-1.52;62.67;99918.03;10499499;28;20476;-51
2020/12/29 09:01:34;;;;;;;19.77;8.25;;;;;;;-1.42;63.58;99912.53;10498511;28;20055;-51
2020/12/29 09:06:36;;;;;;;16.90;7.28;;;;;;;-1.32;63.32;99913.06;10502035;28;20082;-50
2020/12/29 09:11:38;;;;;;;10.93;4.20;;;;;;;-1.41;62.17;99903.91;10499286;28;20052;-50
2020/12/29 09:16:59;;;;;;;8.43;3.90;;;;;;;-1.36;62.29;99890.84;10499537;28;20056;-51
2020/12/29 09:22:05;;;;;;;5.10;2.38;;;;;;;-1.45;62.79;99894.59;10499858;28;20469;-50
2020/12/29 09:27:07;;;;;;;12.65;5.78;;;;;;;-1.47;62.89;99888.63;10499327;28;20060;-50
2020/12/29 09:32:17;;;;;;;14.40;6.30;;;;;;;-1.50;62.97;99887.91;10498733;28;20045;-51
2020/12/29 09:37:19;;;;;;;11.52;3.47;;;;;;;-1.47;62.89;99906.69;10498995;28;20049;-52
2020/12/29 09:42:21;;;;;;;6.80;3.60;;;;;;;-1.47;62.88;99891.22;10499481;28;20530;-56
2020/12/29 09:47:23;;;;;;;9.48;4.55;;;;;;;-1.53;63.09;99869.94;10499787;28;20139;-51
2020/12/29 09:52:29;;;;;;;11.65;4.35;;;;;;;-1.44;63.92;99870.47;10500020;28;20085;-52
2020/12/29 09:57:31;;;;;;;9.40;3.80;;;;;;;-1.46;62.65;99867.09;10499024;28;20052;-50
2020/12/29 10:02:34;;;;;;;9.75;4.95;;;;;;;-1.57;63.01;99856.31;10498173;28;20049;-50
2020/12/29 10:07:36;;;;;;;6.63;2.60;;;;;;;-1.58;62.50;99867.50;10499607;28;20401;-51
2020/12/29 10:12:37;;;;;;;4.90;2.42;;;;;;;-1.66;62.93;99867.78;10499500;28;20389;-52
2020/12/29 10:17:40;;;;;;;8.38;3.42;;;;;;;-1.62;63.41;99845.31;10498805;28;20408;-51
2020/12/29 10:22:42;;;;;;;8.88;3.17;;;;;;;-1.48;64.26;99844.84;10501944;28;20041;-52
2020/12/29 10:27:45;;;;;;;9.75;3.35;;;;;;;-1.46;63.85;99838.75;10505166;28;20049;-51
2020/12/29 10:32:47;;;;;;;8.27;3.58;;;;;;;-1.40;63.17;99846.25;10487001;28;20044;-50
2020/12/29 10:37:49;;;;;;;10.60;4.22;;;;;;;-1.44;63.17;99829.22;10444244;28;20057;-51
2020/12/29 10:42:51;;;;;;;8.05;3.58;;;;;;;-1.38;62.59;99848.81;10462662;28;20045;-52
2020/12/29 10:47:53;;;;;;;12.63;5.50;;;;;;;-1.45;62.98;99826.69;10462129;28;20049;-52
2020/12/29 10:52:55;;;;;;;8.55;4.30;;;;;;;-1.44;62.64;99818.91;10460671;28;20523;-51
2020/12/29 10:57:59;;;;;;;10.88;4.95;;;;;;;-1.51;62.42;99822.59;10463545;28;20060;-51
2020/12/29 11:03:03;;;;;;;6.60;2.95;;;;;;;-1.46;62.56;99836.16;10463995;28;20045;-50
2020/12/29 11:08:05;;;;;;;6.43;3.50;;;;;;;-1.53;62.33;99846.75;10461321;28;20492;-51
2020/12/29 11:13:09;;;;;;;7.63;3.42;;;;;;;-1.55;62.49;99825.31;10462505;28;20128;-52
2020/12/29 11:18:11;;;;;;;7.97;3.83;;;;;;;-1.54;62.88;99807.22;10460195;28;20060;-51
2020/12/29 11:23:13;;;;;;;9.73;2.88;;;;;;;-1.56;62.20;99803.84;10461482;28;20052;-50
2020/12/29 11:28:15;;;;;;;8.05;3.25;;;;;;;-1.61;62.03;99792.84;10459783;28;20045;-49
2020/12/29 11:33:18;;;;;;;9.27;4.50;;;;;;;-1.71;61.77;99774.28;10454708;28;20115;-51
2020/12/29 11:38:21;;;;;;;10.00;2.20;;;;;;;-1.69;63.07;99787.13;10452307;28;20493;-52
2020/12/29 11:43:22;;;;;;;24.55;7.97;;;;;;;-1.70;62.54;99785.44;10501138;28;20501;-49
2020/12/29 11:48:25;;;;;;;10.80;4.20;;;;;;;-1.68;62.82;99773.34;10502301;28;20131;-49
2020/12/29 11:53:28;;;;;;;9.43;3.33;;;;;;;-1.70;62.49;99808.63;10485063;28;20597;-50
2020/12/29 11:58:30;;;;;;;13.05;4.38;;;;;;;-1.72;61.80;99775.19;10458664;28;20060;-50
2020/12/29 12:03:32;;;;;;;8.15;3.10;;;;;;;-1.82;61.71;99794.41;10459305;28;20438;-50
2020/12/29 12:08:34;;;;;;;4.80;1.73;;;;;;;-1.85;62.29;99755.84;10458202;28;20371;-52
2020/12/29 12:13:37;;;;;;;10.95;4.28;;;;;;;-1.88;61.66;99767.13;10460030;28;20367;-51
2020/12/29 12:18:40;;;;;;;7.95;3.60;;;;;;;-1.83;62.35;99758.38;10456720;28;20079;-52
2020/12/29 12:23:42;;;;;;;12.93;5.15;;;;;;;-1.87;62.24;99743.03;10458234;28;20144;-55
2020/12/29 12:28:44;;;;;;;11.50;4.85;;;;;;;-1.83;61.76;99748.09;10459143;28;20063;-50
2020/12/29 12:33:46;;;;;;;12.60;5.50;;;;;;;-1.79;62.09;99758.22;10457478;28;20048;-57
2020/12/29 12:38:48;;;;;;;11.73;4.43;;;;;;;-1.86;61.87;99739.56;10463774;28;20087;-52
2020/12/29 12:43:50;;;;;;;12.43;4.78;;;;;;;-1.88;62.14;99730.19;10499755;28;20544;-52
2020/12/29 12:48:52;;;;;;;10.07;4.63;;;;;;;-1.92;61.76;99734.59;10485156;28;20045;-50
2020/12/29 12:53:54;;;;;;;6.22;2.28;;;;;;;-2.06;61.58;99756.56;10457446;28;20045;-52
2020/12/29 12:58:55;;;;;;;6.88;3.42;;;;;;;-2.20;61.03;99729.53;10457269;28;20061;-50
2020/12/29 13:03:58;;;;;;;7.90;3.63;;;;;;;-2.19;62.38;99712.34;10456350;28;20049;-51
2020/12/29 13:09:00;;;;;;;10.85;4.30;;;;;;;-2.14;62.47;99737.06;10456951;28;20056;-50
2020/12/29 13:14:01;;;;;;;8.27;3.08;;;;;;;-2.25;62.11;99749.44;10457231;28;20049;-50
2020/12/29 13:19:04;;;;;;;10.32;4.03;;;;;;;-2.30;62.41;99701.56;10458765;28;20099;-50
2020/12/29 13:24:05;;;;;;;13.75;6.07;;;;;;;-2.27;62.83;99704.03;10455007;28;20182;-51
2020/12/29 13:29:07;;;;;;;6.90;3.03;;;;;;;-2.25;61.68;99684.22;10457685;28;20049;-54
2020/12/29 13:34:10;;;;;;;10.45;3.60;;;;;;;-2.24;62.89;99698.78;10455557;28;20478;-50
2020/12/29 13:39:11;;;;;;;11.52;4.68;;;;;;;-2.27;62.57;99692.00;10465054;28;20040;-52
2020/12/29 13:44:13;;;;;;;14.38;5.80;;;;;;;-2.41;61.74;99705.31;10496993;28;20074;-49
2020/12/29 13:49:15;;;;;;;7.93;3.38;;;;;;;-2.43;62.61;99694.25;10496600;28;20205;-52
2020/12/29 13:54:17;;;;;;;8.88;2.72;;;;;;;-2.43;62.49;99670.22;10499503;28;20433;-52
2020/12/29 13:59:19;;;;;;;13.18;6.55;;;;;;;-2.36;62.75;99672.53;10503471;28;20057;-50
2020/12/29 14:04:21;;;;;;;12.45;5.65;;;;;;;-2.42;62.31;99641.84;10499412;28;20075;-50
2020/12/29 14:09:23;;;;;;;7.80;3.07;;;;;;;-2.40;62.92;99655.53;10463218;28;20049;-50
2020/12/29 14:14:25;;;;;;;14.55;6.88;;;;;;;-2.35;62.98;99648.47;10462906;28;20056;-50
2020/12/29 14:19:28;;;;;;;15.85;5.88;;;;;;;-2.40;62.90;99650.38;10461747;28;20076;-51
2020/12/29 14:24:29;;;;;;;10.85;4.57;;;;;;;-2.36;62.92;99645.97;10462891;28;20048;-51
2020/12/29 14:29:31;;;;;;;10.93;4.55;;;;;;;-2.47;62.52;99630.03;10462028;28;20049;-51
2020/12/29 14:34:33;;;;;;;11.25;4.80;;;;;;;-2.46;62.94;99663.44;10461250;28;20131;-50
2020/12/29 14:39:35;;;;;;;10.15;3.78;;;;;;;-2.41;62.91;99668.44;10474603;28;20052;-49
2020/12/29 14:44:37;;;;;;;9.15;4.07;;;;;;;-2.50;62.44;99651.56;10503108;28;20040;-51
2020/12/29 14:49:39;;;;;;;9.27;3.50;;;;;;;-2.56;62.62;99649.19;10503144;28;20045;-52
2020/12/29 14:54:42;;;;;;;10.75;3.70;;;;;;;-2.54;63.28;99655.13;10469858;28;20051;-50
2020/12/29 14:59:44;;;;;;;13.43;5.73;;;;;;;-2.61;62.34;99625.34;10461877;28;20143;-50
2020/12/29 15:04:46;;;;;;;7.63;3.63;;;;;;;-2.66;63.37;99620.31;10462641;28;20306;-51
2020/12/29 15:09:48;;;;;;;13.80;5.78;;;;;;;-2.67;63.20;99620.41;10460741;28;20049;-50
2020/12/29 15:14:50;;;;;;;9.32;3.17;;;;;;;-2.61;63.41;99641.63;10460827;28;20171;-52
2020/12/29 15:19:52;;;;;;;14.75;5.13;;;;;;;-2.62;63.20;99628.78;10461625;28;20044;-52
2020/12/29 15:24:54;;;;;;;7.47;3.75;;;;;;;-2.54;63.48;99611.38;10432105;28;20072;-50
2020/12/29 15:29:55;;;;;;;9.75;4.93;;;;;;;-2.51;63.44;99600.13;10421577;28;20049;-53
2020/12/29 15:34:58;;;;;;;13.48;5.90;;;;;;;-2.49;63.39;99583.75;10464311;28;20049;-52
2020/12/29 15:39:59;;;;;;;11.38;5.10;;;;;;;-2.53;63.09;99579.59;10476257;28;20504;-55
2020/12/29 15:45:01;;;;;;;10.52;4.40;;;;;;;-2.55;63.27;99565.94;10494142;28;20048;-52
2020/12/29 15:50:04;;;;;;;9.05;4.32;;;;;;;-2.58;63.19;99581.50;10458052;28;20036;-50
2020/12/29 15:55:06;;;;;;;16.83;5.85;;;;;;;-2.49;63.89;99552.00;10458832;28;20136;-50
2020/12/29 16:00:07;;;;;;;13.52;5.30;;;;;;;-2.42;63.60;99556.91;10458190;28;20143;-50
2020/12/29 16:05:11;;;;;;;13.60;6.25;;;;;;;-2.35;64.06;99555.78;10458121;28;20198;-52
2020/12/29 16:10:15;;;;;;;11.90;4.93;;;;;;;-2.28;63.87;99576.16;10458353;28;20053;-52
2020/12/29 16:15:16;;;;;;;;;;;;;;;-2.29;64.13;99577.91;10458609;28;20041;-52
2020/12/29 16:20:18;;;;;;;10.65;5.05;;;;;;;-2.38;64.39;99540.44;10457151;28;20027;-51
2020/12/29 16:25:20;;;;;;;10.20;4.75;;;;;;;-2.46;64.74;99542.47;10457440;28;20052;-50
2020/12/29 16:30:22;;;;;;;7.78;3.42;;;;;;;-2.42;64.87;99558.63;10457070;28;20056;-53
2020/12/29 16:35:24;;;;;;;14.27;5.93;;;;;;;-2.52;65.24;99540.09;10456490;28;20481;-51
2020/12/29 16:40:26;;;;;;;10.70;4.88;;;;;;;-2.54;65.23;99559.91;10478085;28;20044;-52
2020/12/29 16:45:27;;;;;;;16.33;7.43;;;;;;;-2.48;65.46;99523.66;10493178;28;20056;-50
2020/12/29 16:50:30;;;;;;;16.80;7.03;;;;;;;-2.42;65.51;99510.56;10458567;28;20056;-51
2020/12/29 16:55:32;;;;;;;14.23;6.45;;;;;;;-2.44;65.85;99494.31;10457156;28;20489;-52
2020/12/29 17:00:33;;;;;;;5.53;2.42;;;;;;;-2.36;65.74;99488.91;10456154;28;20063;-50
2020/12/29 17:05:39;;;;;;;9.30;4.65;;;;;;;-2.32;65.93;99506.75;10457238;28;20063;-51
2020/12/29 17:10:42;;;;;;;14.82;6.28;;;;;;;-2.25;65.97;99509.94;10457444;28;20045;-51
2020/12/29 17:15:43;;;;;;;14.83;5.80;;;;;;;-2.28;65.54;99489.47;10456559;28;20071;-49
2020/12/29 17:20:46;;;;;;;13.10;6.13;;;;;;;-2.16;65.48;99503.63;10456320;28;20053;-50
2020/12/29 17:25:48;;;;;;;13.18;5.03;;;;;;;-2.21;65.20;99527.00;10456501;28;20067;-50
2020/12/29 17:30:50;;;;;;;11.57;4.88;;;;;;;-2.29;65.03;99498.09;10458818;28;20049;-52
2020/12/29 17:35:54;;;;;;;16.60;7.82;;;;;;;-2.28;64.82;99522.94;10463825;28;20389;-51
2020/12/29 17:40:56;;;;;;;10.50;4.85;;;;;;;-2.34;64.90;99498.28;10489622;28;20060;-53
2020/12/29 17:45:57;;;;;;;14.77;6.47;;;;;;;-2.29;64.90;99481.81;10496440;28;20195;-49
2020/12/29 17:51:00;;;;;;;11.48;5.40;;;;;;;-2.32;64.70;99459.59;10464549;28;20064;-49
2020/12/29 17:56:02;;;;;;;10.13;3.60;;;;;;;-2.27;65.04;99491.16;10466325;28;20053;-52
2020/12/29 18:01:04;;;;;;;11.73;4.70;;;;;;;-2.33;64.88;99456.19;10464970;28;20713;-51
2020/12/29 18:06:14;;;;;;;6.60;2.53;;;;;;;-2.28;65.11;99442.28;10463753;28;20060;-51
2020/12/29 18:11:16;;;;;;;12.05;5.10;;;;;;;-2.24;65.39;99444.69;10465378;28;20191;-51
2020/12/29 18:16:17;;;;;;;8.40;3.70;;;;;;;-2.27;64.84;99438.84;10464214;28;20052;-51
2020/12/29 18:21:20;;;;;;;9.13;4.30;;;;;;;-2.25;65.26;99475.63;10464608;28;20481;-51
2020/12/29 18:26:21;;;;;;;11.73;5.07;;;;;;;-2.20;65.09;99446.25;10456616;28;20052;-52
2020/12/29 18:31:24;;;;;;;14.52;6.50;;;;;;;-2.20;64.62;99472.00;10428581;28;20041;-50
2020/12/29 18:36:26;;;;;;;10.15;4.57;;;;;;;-2.24;64.54;99487.66;10462749;28;20063;-52
2020/12/29 18:41:28;;;;;;;10.85;4.65;;;;;;;-2.19;65.14;99467.69;10490704;28;20040;-51
2020/12/29 18:46:30;;;;;;;10.27;3.53;;;;;;;-2.21;64.70;99469.50;10491100;28;20366;-52
2020/12/29 18:51:32;;;;;;;9.60;3.85;;;;;;;-2.22;64.60;99454.94;10461812;28;20045;-52
2020/12/29 18:56:34;;;;;;;13.50;5.83;;;;;;;-2.20;64.94;99451.41;10460346;28;20061;-52
2020/12/29 19:01:36;;;;;;;9.38;3.90;;;;;;;-2.11;64.96;99452.81;10461546;28;20466;-53
2020/12/29 19:06:39;;;;;;;16.48;5.75;;;;;;;-2.02;64.76;99449.88;10460323;28;20497;-50
2020/12/29 19:11:41;;;;;;;8.52;4.30;;;;;;;-2.09;64.55;99444.13;10460943;28;20464;-51
2020/12/29 19:16:42;;;;;;;11.95;4.97;;;;;;;-2.11;64.42;99487.13;10460035;28;20393;-51
2020/12/29 19:21:45;;;;;;;12.52;4.93;;;;;;;-2.10;64.60;99467.34;10460494;28;20049;-52
2020/12/29 19:26:46;;;;;;;15.35;6.53;;;;;;;-2.08;64.58;99429.50;10460200;28;20493;-52
2020/12/29 19:31:53;;;;;;;14.20;6.35;;;;;;;-1.96;64.69;99444.50;10459429;28;20056;-50
2020/12/29 19:37:01;;;;;;;12.32;4.82;;;;;;;-1.86;64.83;99438.09;10445603;28;20481;-51
2020/12/29 19:42:03;;;;;;;15.93;6.00;;;;;;;-1.77;64.71;99442.06;10493396;28;20044;-51
2020/12/29 19:47:05;;;;;;;5.30;2.10;;;;;;;-1.68;64.61;99438.28;10484160;28;20371;-51
2020/12/29 19:52:08;;;;;;;12.65;5.95;;;;;;;-1.65;64.74;99417.53;10459403;28;20075;-50
2020/12/29 19:57:09;;;;;;;14.93;6.32;;;;;;;-1.70;64.23;99419.44;10459669;28;20065;-50
2020/12/29 20:02:11;;;;;;;7.25;3.35;;;;;;;-1.67;64.23;99445.09;10459350;28;20140;-50
2020/12/29 20:07:13;;;;;;;12.98;5.38;;;;;;;-1.64;64.75;99404.59;10458304;28;20064;-51
2020/12/29 20:12:15;;;;;;;13.15;6.80;;;;;;;-1.52;64.42;99407.56;10459299;28;20063;-52
2020/12/29 20:17:18;;;;;;;12.23;4.68;;;;;;;-1.63;64.09;99423.50;10457077;28;20428;-52
2020/12/29 20:22:24;;;;;;;12.23;5.63;;;;;;;-1.71;64.14;99384.28;10458017;28;20539;-50
2020/12/29 20:27:26;;;;;;;6.03;2.30;;;;;;;-1.74;63.71;99377.50;10458516;28;20083;-52
2020/12/29 20:32:28;;;;;;;12.60;5.40;;;;;;;-1.92;63.79;99367.94;10456700;28;20488;-53
2020/12/29 20:37:30;;;;;;;11.20;5.18;;;;;;;-1.93;64.42;99392.88;10458329;28;20063;-51
2020/12/29 20:42:32;;;;;;;15.32;5.97;;;;;;;-1.72;64.56;99369.72;10494899;28;20139;-52
2020/12/29 20:47:34;;;;;;;15.73;6.30;;;;;;;-1.81;64.18;99368.34;10478999;28;20048;-52
2020/12/29 20:52:36;;;;;;;11.93;5.47;;;;;;;-1.92;64.58;99349.91;10457283;28;20052;-50
2020/12/29 20:57:38;;;;;;;18.45;7.53;;;;;;;-1.82;65.07;99346.03;10456363;28;20387;-58
2020/12/29 21:02:40;;;;;;;14.63;6.63;;;;;;;-1.69;64.58;99330.94;10456874;28;20088;-53
2020/12/29 21:07:42;;;;;;;12.07;5.15;;;;;;;-1.54;64.79;99344.91;10456835;28;20105;-50
2020/12/29 21:12:44;;;;;;;15.13;6.13;;;;;;;-1.49;64.48;99350.75;10456483;28;20055;-50
2020/12/29 21:17:45;;;;;;;14.35;5.70;;;;;;;-1.50;64.44;99349.91;10457737;28;20049;-50
2020/12/29 21:22:48;;;;;;;17.38;6.70;;;;;;;-1.37;64.66;99360.53;10457219;28;20489;-52
2020/12/29 21:27:49;;;;;;;15.75;6.47;;;;;;;-1.35;64.86;99360.50;10455929;28;20087;-51
2020/12/29 21:32:51;;;;;;;15.48;5.60;;;;;;;-1.36;65.10;99356.22;10456622;28;20053;-50
2020/12/29 21:37:55;;;;;;;17.30;7.93;;;;;;;-1.36;64.94;99345.91;10456487;28;20057;-50
2020/12/29 21:42:57;;;;;;;18.48;8.23;;;;;;;-1.34;64.98;99352.69;10496818;28;20090;-50
2020/12/29 21:47:58;;;;;;;11.32;5.25;;;;;;;-1.27;64.70;99348.09;10467465;28;20048;-49
2020/12/29 21:53:01;;;;;;;17.08;8.82;;;;;;;-1.32;64.79;99347.47;10456055;28;20037;-50
2020/12/29 21:58:03;;;;;;;11.05;4.75;;;;;;;-1.23;64.94;99349.63;10455671;28;20065;-52
2020/12/29 22:03:04;;;;;;;18.10;7.03;;;;;;;-1.17;64.25;99347.66;10456213;28;20474;-52
2020/12/29 22:08:07;;;;;;;14.85;6.38;;;;;;;-1.09;64.15;99336.16;10455834;28;20060;-52
2020/12/29 22:13:10;;;;;;;15.65;7.45;;;;;;;-0.98;64.18;99334.78;10455548;28;20045;-49
2020/12/29 22:18:11;;;;;;;13.38;6.65;;;;;;;-0.87;63.68;99351.53;10459589;28;20412;-51
2020/12/29 22:23:14;;;;;;;9.93;4.80;;;;;;;-0.94;63.80;99350.97;10463399;28;20049;-50
2020/12/29 22:28:16;;;;;;;12.45;5.07;;;;;;;-0.98;63.91;99350.28;10463223;28;20059;-51
2020/12/29 22:33:17;;;;;;;13.75;6.28;;;;;;;-1.03;64.16;99354.78;10462308;28;20049;-50
2020/12/29 22:38:20;;;;;;;15.60;6.63;;;;;;;-1.08;64.28;99361.88;10464482;28;20073;-59
2020/12/29 22:43:21;;;;;;;14.48;6.03;;;;;;;-1.20;63.98;99346.91;10502665;28;20041;-50
2020/12/29 22:48:23;;;;;;;15.85;6.75;;;;;;;-1.37;64.08;99354.56;10474186;28;20060;-50
2020/12/29 22:53:26;;;;;;;11.02;5.22;;;;;;;-1.35;64.60;99358.75;10461621;28;20415;-53
2020/12/29 22:58:27;;;;;;;21.40;8.63;;;;;;;-1.40;64.58;99351.19;10461592;28;20075;-51
2020/12/29 23:03:29;;;;;;;19.73;8.32;;;;;;;-1.22;64.33;99341.84;10461933;28;20041;-50
2020/12/29 23:08:31;;;;;;;13.85;5.70;;;;;;;-1.22;63.94;99346.16;10460754;28;20521;-52